Geroi Shipki — EOIB — position and weather

sailwx.info

Track history (hours):
 
Tides and Currents Weather Stations Pressure Air Temp Water Temp Dewpoint Dewpoint Depression Visibility Wind Speed Wind Dir Waves Ship Positions

Geroi Shipki

Last reported at 2014-Oct-29 00:06 UTC. Time now 2014-Oct-31 16:33 UTC.
Position N 46°07' E 031°11'.

Length 184 m; draft 6.2 m.

Type: Cargo ship. MMSI: 272976000.

Date/timePositionNaut miles runAvg speedWind from/ knotsBaromVisibWave heightAir tempDewpointWater temp
2014-Oct-29 00:06N 46°07' E 031°11'10 5.9
2014-Oct-28 22:20N 46°01' E 031°23'152 5.7
2014-Oct-27 19:25N 44°23' E 034°09'910.1
2014-Oct-27 18:33N 44°27' E 034°21'8 7.9
2014-Oct-27 17:33N 44°24' E 034°31'7 7.3
2014-Oct-27 16:33N 44°19' E 034°38'7 7.2
2014-Oct-27 15:33N 44°14' E 034°46'7 7.2
2014-Oct-27 14:31N 44°09' E 034°53'23 7.2
2014-Oct-27 11:23N 43°54' E 035°17'17 7.7
2014-Oct-27 09:08N 43°50' E 035°40'  
Track history (hours):
 
Tides and Currents Weather Stations Pressure Air Temp Water Temp Dewpoint Dewpoint Depression Visibility Wind Speed Wind Dir Waves Ship Positions

Geroi Shipki

Last reported at 2014-Oct-29 00:06 UTC. Time now 2014-Oct-31 16:33 UTC.
Position N 46°07' E 031°11'.

Length 184 m; draft 6.2 m.

Type: Cargo ship. MMSI: 272976000.

Date/timePositionNaut miles runAvg speedWind from/ knotsBaromVisibWave heightAir tempDewpointWater temp
2014-Oct-29 00:06N 46°07' E 031°11'10 5.9
2014-Oct-28 22:20N 46°01' E 031°23'152 5.7
2014-Oct-27 19:25N 44°23' E 034°09'910.1
2014-Oct-27 18:33N 44°27' E 034°21'8 7.9
2014-Oct-27 17:33N 44°24' E 034°31'7 7.3
2014-Oct-27 16:33N 44°19' E 034°38'7 7.2
2014-Oct-27 15:33N 44°14' E 034°46'7 7.2
2014-Oct-27 14:31N 44°09' E 034°53'23 7.2
2014-Oct-27 11:23N 43°54' E 035°17'17 7.7
2014-Oct-27 09:08N 43°50' E 035°40'  

Dump ship's entire track history